Time;durP1;ratioP1;P1;durP2;ratioP2;P2;SDS_P1;SDS_P2;PMS_P1;PMS_P2;Temp;Humidity;BMP_temperature;BMP_pressure;BME280_temperature;BME280_humidity;BME280_pressure;Samples;Min_cycle;Max_cycle;Signal;HPM_P1;HPM_P2
2021/09/01 00:00:34;;;;;;;13.53;6.40;;;14.70;99.90;;;;;;5071950;28;20205;-62
2021/09/01 00:03:02;;;;;;;13.50;7.30;;;14.60;99.90;;;;;;5071862;28;20274;-62
2021/09/01 00:05:29;;;;;;;16.63;7.60;;;14.60;99.90;;;;;;5071739;28;20209;-62
2021/09/01 00:07:55;;;;;;;15.53;6.67;;;14.60;99.90;;;;;;5070781;28;20209;-63
2021/09/01 00:10:22;;;;;;;20.90;7.40;;;14.50;99.90;;;;;;5071766;28;20901;-62
2021/09/01 00:12:49;;;;;;;16.23;6.40;;;14.50;99.90;;;;;;5071808;28;20225;-62
2021/09/01 00:15:15;;;;;;;13.40;6.67;;;14.50;29.70;;;;;;5072083;28;20212;-62
2021/09/01 00:17:42;;;;;;;19.63;8.00;;;14.50;1.00;;;;;;5071799;28;20215;-62
2021/09/01 00:20:11;;;;;;;18.83;6.70;;;14.50;93.90;;;;;;5071237;28;20258;-62
2021/09/01 00:22:38;;;;;;;13.17;6.43;;;14.50;65.80;;;;;;5071797;28;20635;-62
2021/09/01 00:25:07;;;;;;;15.00;6.00;;;14.50;1.00;;;;;;5071809;28;20200;-63
2021/09/01 00:27:34;;;;;;;12.40;6.30;;;14.50;82.70;;;;;;5071865;28;20670;-62
2021/09/01 00:30:01;;;;;;;15.43;6.47;;;14.60;99.90;;;;;;5070420;28;20208;-62
2021/09/01 00:32:27;;;;;;;18.13;6.60;;;14.60;1.00;;;;;;5071172;28;20224;-62
2021/09/01 00:34:54;;;;;;;13.60;6.50;;;14.60;1.00;;;;;;5071690;28;20209;-62
2021/09/01 00:37:22;;;;;;;13.97;6.40;;;14.60;1.00;;;;;;5072202;28;20636;-62
2021/09/01 00:39:49;;;;;;;14.57;6.37;;;14.60;99.90;;;;;;5071670;28;20205;-62
2021/09/01 00:42:16;;;;;;;12.90;6.40;;;14.60;99.90;;;;;;5071404;28;20224;-62
2021/09/01 00:44:42;;;;;;;12.00;6.43;;;14.60;99.90;;;;;;5070305;28;20267;-62
2021/09/01 00:47:09;;;;;;;14.03;6.47;;;14.60;99.90;;;;;;5071552;28;20201;-62
2021/09/01 00:49:36;;;;;;;18.30;6.37;;;14.60;99.90;;;;;;5072048;28;20204;-62
2021/09/01 00:52:05;;;;;;;14.23;6.40;;;14.60;99.90;;;;;;5071627;28;20250;-62
2021/09/01 00:54:33;;;;;;;12.67;6.13;;;14.60;1.00;;;;;;5071686;28;20616;-63
2021/09/01 00:57:02;;;;;;;14.50;5.87;;;14.60;1.00;;;;;;5070669;28;20205;-62
2021/09/01 00:59:31;;;;;;;16.43;6.00;;;14.60;1.00;;;;;;5071908;28;20205;-62
2021/09/01 01:01:58;;;;;;;12.17;6.03;;;14.60;99.90;;;;;;5070365;28;20259;-62
2021/09/01 01:04:26;;;;;;;16.07;6.07;;;14.60;99.90;;;;;;5071698;28;20225;-62
2021/09/01 01:06:54;;;;;;;14.20;5.90;;;14.60;99.90;;;;;;5071505;28;20258;-63
2021/09/01 01:09:21;;;;;;;14.17;6.10;;;14.60;99.90;;;;;;5071422;28;20208;-62
2021/09/01 01:12:03;;;;;;;20.10;6.67;;;14.60;99.90;;;;;;5070555;28;20789;-62
2021/09/01 01:14:30;;;;;;;17.50;6.50;;;14.70;99.90;;;;;;5071055;28;20637;-62
2021/09/01 01:16:56;;;;;;;14.43;6.07;;;14.60;1.00;;;;;;5071776;28;20211;-63
2021/09/01 01:19:23;;;;;;;15.00;6.00;;;14.60;99.90;;;;;;5071468;28;20205;-61
2021/09/01 01:21:50;;;;;;;12.70;6.13;;;14.70;99.90;;;;;;5071358;28;20213;-61
2021/09/01 01:24:17;;;;;;;14.77;6.53;;;14.70;1.00;;;;;;5070863;28;20229;-63
2021/09/01 01:26:45;;;;;;;13.47;5.83;;;14.80;99.90;;;;;;5071212;28;20733;-62
2021/09/01 01:29:12;;;;;;;10.70;5.63;;;14.90;1.00;;;;;;5070472;28;20263;-62
2021/09/01 01:31:40;;;;;;;13.50;5.70;;;14.90;99.90;;;;;;5072521;28;20208;-63
2021/09/01 01:34:13;;;;;;;14.10;5.90;;;14.80;99.90;;;;;;5073673;28;20262;-62
2021/09/01 01:36:39;;;;;;;12.67;5.80;;;14.80;99.90;;;;;;5075102;28;20205;-63
2021/09/01 01:39:06;;;;;;;13.13;5.57;;;14.80;1.00;;;;;;5074458;28;20853;-63
2021/09/01 01:41:33;;;;;;;11.83;6.10;;;14.80;99.90;;;;;;5073467;28;20205;-63
2021/09/01 01:44:01;;;;;;;20.43;6.47;;;14.70;99.90;;;;;;5074729;28;20283;-62
2021/09/01 01:46:27;;;;;;;15.93;6.37;;;14.70;99.90;;;;;;5074880;28;20213;-62
2021/09/01 01:48:54;;;;;;;12.60;5.93;;;14.70;99.90;;;;;;5075138;28;20255;-61
2021/09/01 01:51:20;;;;;;;14.00;6.30;;;14.60;99.90;;;;;;5073786;28;20258;-62
2021/09/01 01:53:47;;;;;;;13.00;6.50;;;14.60;99.90;;;;;;5073094;28;20220;-63
2021/09/01 01:56:14;;;;;;;12.90;6.20;;;14.70;1.00;;;;;;5074800;28;20216;-62
2021/09/01 01:58:40;;;;;;;14.23;6.53;;;14.70;1.00;;;;;;5074450;28;20274;-62
2021/09/01 02:01:08;;;;;;;14.00;6.47;;;14.70;1.00;;;;;;5074336;28;20254;-63
2021/09/01 02:03:35;;;;;;;13.30;6.37;;;14.70;1.00;;;;;;5074143;28;20743;-63
2021/09/01 02:06:01;;;;;;;16.47;6.90;;;14.70;99.90;;;;;;5074445;28;20636;-63
2021/09/01 02:08:28;;;;;;;11.53;6.60;;;14.70;99.90;;;;;;5074181;28;20209;-63
2021/09/01 02:10:54;;;;;;;14.80;7.17;;;14.70;99.90;;;;;;5074459;28;20673;-63
2021/09/01 02:13:21;;;;;;;19.07;6.83;;;14.60;1.00;;;;;;5074462;28;20229;-63
2021/09/01 02:15:48;;;;;;;16.23;6.80;;;14.60;99.90;;;;;;5074202;28;20251;-63
2021/09/01 02:18:16;;;;;;;14.33;6.77;;;14.50;1.00;;;;;;5072462;28;20254;-63
2021/09/01 02:20:42;;;;;;;14.53;6.40;;;14.60;99.90;;;;;;5073835;28;20622;-62
2021/09/01 02:23:09;;;;;;;14.13;6.53;;;14.60;99.90;;;;;;5074065;28;20224;-62
2021/09/01 02:25:36;;;;;;;18.43;6.73;;;14.60;31.20;;;;;;5074191;28;20248;-63
2021/09/01 02:28:03;;;;;;;15.07;6.57;;;14.60;1.00;;;;;;5073895;28;20209;-63
2021/09/01 02:30:29;;;;;;;20.27;7.23;;;14.60;9.00;;;;;;5074133;28;20213;-63
2021/09/01 02:32:56;;;;;;;15.40;6.70;;;14.50;51.90;;;;;;5073342;28;20670;-63
2021/09/01 02:35:24;;;;;;;21.67;6.57;;;14.50;99.90;;;;;;5071554;28;20212;-63
2021/09/01 02:37:52;;;;;;;15.43;6.73;;;14.60;99.90;;;;;;5074089;28;20626;-63
2021/09/01 02:40:19;;;;;;;17.50;6.27;;;14.60;99.90;;;;;;5073783;28;20205;-63
2021/09/01 02:42:46;;;;;;;11.67;6.43;;;14.70;18.30;;;;;;5072937;28;20224;-62
2021/09/01 02:45:13;;;;;;;12.17;6.50;;;14.70;1.00;;;;;;5073583;28;20213;-63
2021/09/01 02:47:40;;;;;;;16.63;6.80;;;14.60;1.00;;;;;;5073777;28;20212;-63
2021/09/01 02:50:08;;;;;;;12.80;6.50;;;14.50;99.90;;;;;;5073507;28;20681;-63
2021/09/01 02:52:36;;;;;;;19.23;7.17;;;14.40;1.00;;;;;;5073442;28;20630;-63
2021/09/01 02:55:03;;;;;;;16.53;7.70;;;14.40;99.90;;;;;;5071997;28;20205;-63
2021/09/01 02:57:30;;;;;;;13.60;7.07;;;14.40;99.90;;;;;;5073717;28;20239;-63
2021/09/01 02:59:57;;;;;;;15.83;7.37;;;14.30;1.00;;;;;;5073596;28;20628;-63
2021/09/01 03:02:23;;;;;;;15.37;7.10;;;14.40;1.00;;;;;;5072007;28;20294;-63
2021/09/01 03:04:50;;;;;;;11.33;5.50;;;14.50;1.00;;;;;;5072405;28;20229;-63
2021/09/01 03:07:16;;;;;;;17.03;7.00;;;14.40;99.90;;;;;;5073059;28;20662;-62
2021/09/01 03:09:44;;;;;;;15.07;6.97;;;14.40;71.50;;;;;;5073415;28;20678;-63
2021/09/01 03:12:11;;;;;;;17.70;6.90;;;14.40;99.90;;;;;;5071586;28;20270;-63
2021/09/01 03:14:38;;;;;;;13.50;6.90;;;14.40;99.90;;;;;;5073179;28;20220;-63
2021/09/01 03:17:04;;;;;;;16.10;6.97;;;14.40;1.00;;;;;;5072797;28;20205;-63
2021/09/01 03:19:31;;;;;;;13.53;7.03;;;14.30;99.90;;;;;;5072519;28;20290;-63
2021/09/01 03:21:58;;;;;;;15.17;7.07;;;14.30;99.90;;;;;;5072699;28;20205;-62
2021/09/01 03:24:24;;;;;;;15.30;6.87;;;14.30;99.90;;;;;;5071930;28;20274;-62
2021/09/01 03:26:52;;;;;;;13.07;7.20;;;14.30;1.00;;;;;;5072207;28;20251;-62
2021/09/01 03:29:19;;;;;;;19.23;7.50;;;14.30;1.00;;;;;;5073113;28;20251;-62
2021/09/01 03:31:46;;;;;;;17.87;6.77;;;14.30;82.30;;;;;;5072293;28;20213;-63
2021/09/01 03:34:12;;;;;;;16.03;6.23;;;14.40;1.00;;;;;;5073183;28;20698;-63
2021/09/01 03:36:39;;;;;;;9.83;6.37;;;14.40;99.90;;;;;;5072810;28;20255;-63
2021/09/01 03:39:05;;;;;;;15.70;6.30;;;14.40;1.00;;;;;;5072641;28;20770;-63
2021/09/01 03:41:32;;;;;;;14.63;7.20;;;14.40;99.90;;;;;;5072529;28;20623;-63
2021/09/01 03:44:00;;;;;;;10.63;6.00;;;14.40;99.90;;;;;;5072115;28;20712;-63
2021/09/01 03:46:27;;;;;;;12.63;7.13;;;14.50;98.50;;;;;;5072239;28;20208;-63
2021/09/01 03:48:53;;;;;;;13.93;6.60;;;14.40;1.00;;;;;;5072455;28;20727;-63
2021/09/01 03:51:20;;;;;;;14.13;7.27;;;14.40;1.00;;;;;;5072492;28;20251;-63
2021/09/01 03:53:46;;;;;;;17.17;6.97;;;14.30;99.90;;;;;;5071575;28;20221;-63
2021/09/01 03:56:13;;;;;;;14.97;6.57;;;14.40;99.90;;;;;;5072329;28;20213;-62
2021/09/01 03:58:40;;;;;;;10.57;6.57;;;14.40;1.00;;;;;;5072119;28;20727;-62
2021/09/01 04:01:08;;;;;;;12.93;6.90;;;14.40;1.00;;;;;;5072430;28;20278;-62
2021/09/01 04:03:34;;;;;;;13.57;5.67;;;14.40;99.90;;;;;;5071979;28;20228;-63
2021/09/01 04:06:02;;;;;;;11.23;7.17;;;14.40;99.90;;;;;;5072228;28;20208;-63
2021/09/01 04:08:29;;;;;;;13.40;6.33;;;14.40;1.00;;;;;;5072312;28;20215;-63
2021/09/01 04:10:55;;;;;;;19.43;6.30;;;14.40;1.00;;;;;;5072333;28;20213;-63
2021/09/01 04:13:22;;;;;;;11.40;5.77;;;14.50;99.90;;;;;;5071902;28;20229;-62
2021/09/01 04:15:49;;;;;;;12.83;5.83;;;14.50;1.00;;;;;;5072255;28;20209;-63
2021/09/01 04:18:17;;;;;;;13.47;5.77;;;14.50;1.00;;;;;;5072018;28;20673;-63
2021/09/01 04:20:43;;;;;;;12.00;5.73;;;14.60;1.00;;;;;;5072122;28;20243;-62
2021/09/01 04:23:10;;;;;;;10.27;6.07;;;14.60;1.00;;;;;;5071929;28;20225;-62
2021/09/01 04:25:36;;;;;;;11.47;6.27;;;14.60;1.00;;;;;;5071807;28;20229;-62
2021/09/01 04:28:03;;;;;;;10.73;5.60;;;14.70;99.90;;;;;;5071873;28;20209;-63
2021/09/01 04:30:30;;;;;;;16.17;6.80;;;14.70;99.90;;;;;;5072100;28;20226;-62
2021/09/01 04:32:56;;;;;;;16.13;6.30;;;14.70;99.90;;;;;;5071715;28;20717;-63
2021/09/01 04:35:24;;;;;;;12.47;5.60;;;14.70;99.90;;;;;;5071704;28;20216;-61
2021/09/01 04:37:51;;;;;;;14.83;6.03;;;14.70;99.90;;;;;;5071773;28;20205;-62
2021/09/01 04:40:18;;;;;;;12.97;5.10;;;14.70;99.90;;;;;;5071981;28;20204;-62
2021/09/01 04:42:44;;;;;;;12.60;5.90;;;14.70;99.90;;;;;;5071633;28;20233;-62
2021/09/01 04:45:12;;;;;;;13.20;5.57;;;14.70;99.90;;;;;;5071593;28;20221;-62
2021/09/01 04:47:39;;;;;;;10.17;5.83;;;14.70;99.90;;;;;;5072015;28;20213;-62
2021/09/01 04:50:07;;;;;;;12.67;6.27;;;14.60;1.00;;;;;;5071799;28;20236;-62
2021/09/01 04:52:34;;;;;;;13.63;5.80;;;14.60;1.00;;;;;;5071538;28;20322;-62
2021/09/01 04:55:01;;;;;;;11.17;5.87;;;14.70;1.00;;;;;;5071279;28;20205;-62
2021/09/01 04:57:28;;;;;;;11.90;6.10;;;14.70;1.00;;;;;;5072020;28;20204;-62
2021/09/01 04:59:54;;;;;;;12.40;6.20;;;14.70;1.00;;;;;;5071750;28;20205;-62
2021/09/01 05:02:21;;;;;;;13.73;5.80;;;14.70;99.90;;;;;;5071632;28;20651;-62
2021/09/01 05:04:47;;;;;;;16.83;7.00;;;14.70;1.00;;;;;;5071774;28;20225;-62
2021/09/01 05:07:14;;;;;;;13.10;8.00;;;14.70;1.00;;;;;;5075827;28;20267;-62
2021/09/01 05:09:42;;;;;;;10.90;6.67;;;14.70;1.00;;;;;;5075927;28;20212;-62
2021/09/01 05:12:09;;;;;;;13.50;6.47;;;14.70;1.00;;;;;;5075550;28;20255;-62
2021/09/01 05:14:35;;;;;;;17.77;7.53;;;14.70;18.90;;;;;;5075248;28;20205;-62
2021/09/01 05:17:02;;;;;;;13.80;6.30;;;14.70;99.90;;;;;;5075509;28;20205;-61
2021/09/01 05:19:29;;;;;;;11.60;5.93;;;14.80;99.90;;;;;;5075353;28;20205;-62
2021/09/01 05:21:56;;;;;;;10.47;6.13;;;14.80;99.90;;;;;;5075077;28;20201;-62
2021/09/01 05:24:30;;;;;;;11.73;6.67;;;14.80;99.90;;;;;;5075070;28;20709;-62
2021/09/01 05:27:08;;;;;;;13.47;5.70;;;14.80;99.90;;;;;;5075226;28;20654;-62
2021/09/01 05:29:38;;;;;;;13.97;6.53;;;14.80;99.90;;;;;;5075279;28;20208;-62
2021/09/01 05:32:08;;;;;;;13.90;6.43;;;14.80;99.90;;;;;;5075301;28;20266;-62
2021/09/01 05:34:34;;;;;;;13.33;6.23;;;14.80;1.00;;;;;;5075022;28;20209;-62
2021/09/01 05:37:01;;;;;;;15.33;7.37;;;14.80;1.00;;;;;;5075215;28;20554;-62
2021/09/01 05:39:28;;;;;;;17.00;8.30;;;14.80;1.00;;;;;;5074985;28;20642;-62
2021/09/01 05:41:56;;;;;;;18.87;9.03;;;14.70;1.00;;;;;;5074960;28;20266;-62
2021/09/01 05:44:24;;;;;;;14.33;7.90;;;14.70;1.00;;;;;;5074668;28;20290;-62
2021/09/01 05:46:53;;;;;;;15.90;8.07;;;14.80;1.00;;;;;;5075031;28;20201;-62
2021/09/01 05:49:22;;;;;;;12.73;7.67;;;14.80;1.00;;;;;;5074593;28;20667;-62
2021/09/01 05:51:49;;;;;;;17.43;8.23;;;14.90;99.90;;;;;;5074769;28;20689;-62
2021/09/01 05:54:16;;;;;;;16.23;8.53;;;14.90;1.00;;;;;;5074494;28;20255;-62
2021/09/01 05:56:45;;;;;;;15.93;8.87;;;14.90;1.00;;;;;;5074783;28;20278;-62
2021/09/01 05:59:14;;;;;;;15.93;7.97;;;14.80;1.00;;;;;;5074525;28;20201;-62
2021/09/01 06:01:50;;;;;;;19.17;8.37;;;14.70;35.60;;;;;;5074464;28;20673;-62
2021/09/01 06:04:19;;;;;;;15.20;8.13;;;14.70;99.90;;;;;;5074554;28;20575;-62
2021/09/01 06:06:50;;;;;;;15.00;8.30;;;14.80;99.90;;;;;;5060785;28;20639;-62
2021/09/01 06:09:17;;;;;;;17.33;8.17;;;14.80;99.90;;;;;;5053530;28;20205;-62
2021/09/01 06:11:45;;;;;;;18.23;8.27;;;14.80;99.90;;;;;;5059198;28;20205;-62
2021/09/01 06:14:12;;;;;;;15.30;7.53;;;14.80;99.90;;;;;;5074146;28;20221;-62
2021/09/01 06:16:39;;;;;;;15.77;9.03;;;14.70;99.90;;;;;;5073545;28;20205;-62
2021/09/01 06:19:07;;;;;;;20.40;8.20;;;14.70;99.90;;;;;;5074106;28;20205;-62
2021/09/01 06:21:34;;;;;;;14.13;8.10;;;14.70;1.00;;;;;;5074176;28;20205;-63
2021/09/01 06:24:01;;;;;;;16.47;8.23;;;14.90;99.90;;;;;;5074112;28;20634;-65
2021/09/01 06:26:27;;;;;;;14.47;7.73;;;14.90;95.00;;;;;;5068603;28;20243;-62
2021/09/01 06:28:54;;;;;;;15.50;7.77;;;15.00;1.00;;;;;;5073840;28;20247;-62
2021/09/01 06:31:21;;;;;;;16.70;7.30;;;15.00;99.90;;;;;;5073757;28;20673;-61
2021/09/01 06:33:47;;;;;;;16.50;8.50;;;15.10;1.00;;;;;;5073246;28;20741;-61
2021/09/01 06:36:15;;;;;;;15.03;7.67;;;15.00;1.00;;;;;;5073477;28;20197;-63
2021/09/01 06:38:42;;;;;;;18.63;8.57;;;15.10;1.00;;;;;;5073683;28;20254;-63
2021/09/01 06:41:09;;;;;;;15.23;8.10;;;15.10;19.30;;;;;;5073256;28;20726;-63
2021/09/01 06:43:35;;;;;;;16.33;7.90;;;15.10;99.90;;;;;;5073412;28;20283;-63
2021/09/01 06:46:02;;;;;;;15.33;8.13;;;15.10;1.00;;;;;;5073318;28;20301;-63
2021/09/01 06:48:28;;;;;;;13.97;7.93;;;15.00;1.00;;;;;;5073175;28;20208;-62
2021/09/01 06:50:55;;;;;;;15.60;7.93;;;14.90;99.90;;;;;;5073355;28;20205;-63
2021/09/01 06:53:23;;;;;;;17.43;8.40;;;14.90;1.00;;;;;;5073213;28;20638;-63
2021/09/01 06:55:49;;;;;;;12.13;7.47;;;14.90;99.90;;;;;;5072740;28;20209;-63
2021/09/01 06:58:18;;;;;;;20.47;10.03;;;14.90;99.90;;;;;;5073221;28;20554;-63
2021/09/01 07:00:45;;;;;;;13.37;7.40;;;14.80;1.00;;;;;;5073128;28;20200;-63
2021/09/01 07:03:12;;;;;;;15.10;6.87;;;14.90;1.00;;;;;;5072916;28;20240;-63
2021/09/01 07:05:39;;;;;;;19.10;7.73;;;14.90;99.90;;;;;;5072772;28;20229;-63
2021/09/01 07:08:13;;;;;;;19.00;7.97;;;14.90;99.70;;;;;;5072583;28;20274;-61
2021/09/01 07:10:42;;;;;;;13.70;7.33;;;15.00;99.60;;;;;;5072948;28;20205;-65
2021/09/01 07:13:08;;;;;;;20.53;8.33;;;14.90;99.90;;;;;;5072528;28;20225;-65
2021/09/01 07:15:35;;;;;;;17.00;7.63;;;14.90;1.00;;;;;;5069512;28;20232;-65
2021/09/01 07:18:02;;;;;;;18.03;8.40;;;14.90;99.90;;;;;;5071760;28;20261;-61
2021/09/01 07:20:28;;;;;;;17.20;7.50;;;14.80;99.90;;;;;;5068186;28;20250;-61
2021/09/01 07:22:55;;;;;;;17.33;8.13;;;14.90;1.00;;;;;;5072678;28;20228;-63
2021/09/01 07:25:26;;;;;;;13.80;7.43;;;14.90;1.00;;;;;;5073190;28;20232;-64
2021/09/01 07:27:54;;;;;;;16.60;7.87;;;14.90;99.90;;;;;;5053255;28;20208;-62
2021/09/01 07:30:21;;;;;;;16.73;7.93;;;14.90;99.90;;;;;;5052805;28;20728;-63
2021/09/01 07:32:47;;;;;;;16.57;8.20;;;14.90;99.90;;;;;;5052819;28;20259;-63
2021/09/01 07:35:14;;;;;;;15.87;7.20;;;14.90;99.90;;;;;;5052325;28;20205;-63
2021/09/01 07:37:44;;;;;;;12.90;7.10;;;14.90;1.00;;;;;;5052696;28;20205;-63
2021/09/01 07:40:13;;;;;;;15.37;6.17;;;15.00;99.90;;;;;;5052831;28;20209;-63
2021/09/01 07:42:39;;;;;;;17.47;6.40;;;15.00;99.90;;;;;;5052690;28;20234;-63
2021/09/01 07:45:08;;;;;;;12.00;5.47;;;15.00;99.90;;;;;;5052297;28;20629;-62
2021/09/01 07:47:35;;;;;;;11.17;6.27;;;14.80;1.00;;;;;;5052263;28;20209;-63
2021/09/01 07:50:02;;;;;;;17.93;6.13;;;14.80;99.90;;;;;;5052107;28;20206;-62
2021/09/01 07:52:29;;;;;;;13.23;5.80;;;14.80;99.90;;;;;;5052350;28;20229;-62
2021/09/01 07:54:55;;;;;;;16.73;6.20;;;14.90;1.00;;;;;;5052205;28;20197;-62
2021/09/01 07:57:22;;;;;;;16.80;6.20;;;15.00;1.00;;;;;;5052275;28;20608;-62
2021/09/01 07:59:49;;;;;;;16.13;6.57;;;15.00;1.00;;;;;;5052320;28;20205;-62
2021/09/01 08:02:17;;;;;;;15.40;6.10;;;14.90;30.80;;;;;;5051745;28;20282;-62
2021/09/01 08:04:43;;;;;;;15.80;6.43;;;15.00;50.40;;;;;;5051721;28;20812;-63
2021/09/01 08:07:10;;;;;;;17.60;6.70;;;15.00;99.90;;;;;;5051884;28;20201;-63
2021/09/01 08:09:36;;;;;;;15.53;6.47;;;15.00;99.90;;;;;;5051893;28;20210;-63
2021/09/01 08:12:03;;;;;;;14.63;6.83;;;15.00;1.00;;;;;;5051797;28;20674;-63
2021/09/01 08:14:30;;;;;;;11.47;6.23;;;15.10;12.10;;;;;;5051481;28;20210;-63
2021/09/01 08:16:57;;;;;;;13.67;5.60;;;15.10;44.60;;;;;;5051548;28;20209;-63
2021/09/01 08:19:25;;;;;;;9.63;5.13;;;15.10;99.90;;;;;;5051530;28;20209;-63
2021/09/01 08:21:51;;;;;;;7.43;4.60;;;15.10;99.90;;;;;;5051877;28;20213;-63
2021/09/01 08:24:18;;;;;;;14.50;5.87;;;15.10;99.90;;;;;;5051407;28;20300;-63
2021/09/01 08:26:45;;;;;;;9.27;5.00;;;15.10;99.90;;;;;;5051550;28;20237;-63
2021/09/01 08:29:11;;;;;;;12.20;5.23;;;15.20;99.90;;;;;;5051498;28;20205;-63
2021/09/01 08:31:38;;;;;;;9.73;4.93;;;15.10;99.90;;;;;;5051260;28;20256;-64
2021/09/01 08:34:05;;;;;;;12.40;5.20;;;15.10;99.90;;;;;;5051544;28;20225;-63
2021/09/01 08:36:33;;;;;;;15.00;7.60;;;15.10;99.90;;;;;;5051494;28;20206;-64
2021/09/01 08:39:00;;;;;;;10.40;5.27;;;15.10;99.90;;;;;;5051732;28;20271;-63
2021/09/01 08:41:28;;;;;;;6.30;4.57;;;15.20;1.00;;;;;;5050938;28;20205;-63
2021/09/01 08:43:55;;;;;;;8.83;4.80;;;15.30;99.90;;;;;;5051287;28;20233;-62
2021/09/01 08:46:22;;;;;;;10.50;5.13;;;15.30;99.90;;;;;;5051456;28;20226;-61
2021/09/01 08:48:51;;;;;;;13.73;5.40;;;15.30;1.00;;;;;;5051617;28;20685;-61
2021/09/01 08:51:18;;;;;;;15.20;5.40;;;15.20;99.90;;;;;;5051319;28;20628;-61
2021/09/01 08:53:46;;;;;;;11.23;5.17;;;15.30;99.90;;;;;;5051105;28;20283;-61
2021/09/01 08:56:13;;;;;;;9.10;4.67;;;15.30;1.00;;;;;;5051201;28;20198;-61
2021/09/01 08:58:39;;;;;;;9.77;5.40;;;15.20;22.40;;;;;;5051447;28;20316;-61
2021/09/01 09:01:06;;;;;;;9.97;5.17;;;15.30;1.00;;;;;;5051449;28;20222;-61
2021/09/01 09:03:35;;;;;;;11.50;5.57;;;15.20;99.90;;;;;;5050885;28;20299;-62
2021/09/01 09:06:04;;;;;;;7.70;4.70;;;15.20;99.90;;;;;;5051149;28;20268;-64
2021/09/01 09:08:32;;;;;;;11.43;5.60;;;15.40;5.90;;;;;;5051287;28;20292;-66
2021/09/01 09:11:00;;;;;;;15.90;6.00;;;15.40;1.00;;;;;;5051182;28;20284;-64
2021/09/01 09:13:30;;;;;;;11.03;6.60;;;15.40;11.30;;;;;;5050675;28;20229;-64
2021/09/01 09:16:06;;;;;;;10.53;5.83;;;15.50;1.00;;;;;;5051264;28;20205;-61
2021/09/01 09:18:33;;;;;;;11.70;6.27;;;15.60;21.80;;;;;;5051527;28;20202;-62
2021/09/01 09:21:15;;;;;;;13.27;6.63;;;15.70;1.00;;;;;;5051317;28;20209;-62
2021/09/01 09:23:42;;;;;;;9.83;5.90;;;15.70;99.90;;;;;;5050693;28;20312;-62
2021/09/01 09:26:25;;;;;;;13.73;6.80;;;15.70;99.90;;;;;;5050585;28;20229;-62
2021/09/01 09:29:20;;;;;;;13.17;6.97;;;15.70;99.90;;;;;;5049544;28;20259;-61
2021/09/01 09:31:58;;;;;;;16.97;7.00;;;15.70;99.90;;;;;;5016169;28;20202;-61
2021/09/01 09:34:34;;;;;;;10.63;5.23;;;15.80;99.90;;;;;;5051249;28;20981;-61
2021/09/01 09:37:03;;;;;;;10.57;5.90;;;15.90;99.90;;;;;;5051319;28;20208;-62
2021/09/01 09:39:43;;;;;;;10.13;5.20;;;15.80;99.90;;;;;;5051375;28;20202;-62
2021/09/01 09:42:13;;;;;;;10.30;5.27;;;15.90;99.90;;;;;;5051144;28;20206;-62
2021/09/01 09:44:39;;;;;;;14.53;6.23;;;15.90;99.90;;;;;;5050742;28;20666;-61
2021/09/01 09:47:06;;;;;;;10.20;6.00;;;15.90;99.90;;;;;;5050969;28;20768;-60
2021/09/01 09:49:34;;;;;;;13.07;7.33;;;16.00;99.90;;;;;;5051224;28;20206;-62
2021/09/01 09:52:01;;;;;;;14.30;6.37;;;16.10;99.90;;;;;;5052069;28;20206;-62
2021/09/01 09:54:28;;;;;;;12.93;5.73;;;16.20;99.90;;;;;;5054370;28;20210;-62
2021/09/01 09:57:07;;;;;;;12.70;5.87;;;16.20;99.90;;;;;;5054697;28;20206;-62
2021/09/01 09:59:36;;;;;;;13.03;6.70;;;16.10;99.90;;;;;;5054802;28;20734;-61
2021/09/01 10:02:03;;;;;;;10.93;5.20;;;15.70;99.90;;;;;;5054764;28;20206;-63
2021/09/01 10:04:31;;;;;;;14.03;6.17;;;15.80;99.90;;;;;;5054475;28;20256;-61
2021/09/01 10:06:58;;;;;;;15.27;5.93;;;15.90;99.90;;;;;;5054524;28;20724;-63
2021/09/01 10:09:25;;;;;;;12.03;5.83;;;16.00;99.90;;;;;;5054600;28;20399;-62
2021/09/01 10:11:52;;;;;;;10.23;5.83;;;16.10;99.90;;;;;;5054504;28;20296;-61
2021/09/01 10:14:21;;;;;;;12.73;5.73;;;16.20;99.90;;;;;;5054160;28;20229;-62
2021/09/01 10:16:54;;;;;;;12.27;5.83;;;16.20;99.90;;;;;;5054698;28;20202;-61
2021/09/01 10:19:26;;;;;;;9.70;5.63;;;16.20;99.90;;;;;;5054502;28;20283;-62
2021/09/01 10:21:56;;;;;;;11.73;5.63;;;16.40;99.90;;;;;;5054350;28;20209;-62
2021/09/01 10:24:24;;;;;;;11.33;5.70;;;16.40;99.90;;;;;;5054031;28;20213;-62
2021/09/01 10:27:03;;;;;;;11.03;5.50;;;16.40;99.90;;;;;;5054206;28;20221;-62
2021/09/01 10:29:43;;;;;;;11.90;5.27;;;16.50;30.10;;;;;;5054436;28;20206;-62
2021/09/01 10:32:19;;;;;;;7.97;4.83;;;16.50;1.00;;;;;;5053364;28;20677;-62
2021/09/01 10:34:45;;;;;;;10.47;5.67;;;16.40;19.00;;;;;;5054119;28;20209;-62
2021/09/01 10:37:39;;;;;;;16.53;6.73;;;16.40;17.10;;;;;;5053969;28;20197;-62
2021/09/01 10:40:08;;;;;;;9.57;5.03;;;16.40;1.00;;;;;;5054147;28;20209;-62
2021/09/01 10:42:44;;;;;;;17.27;7.77;;;16.60;1.00;;;;;;5053702;28;20240;-62
2021/09/01 10:45:18;;;;;;;10.30;4.67;;;16.60;23.00;;;;;;5053829;28;20216;-62
2021/09/01 10:48:07;;;;;;;12.63;6.27;;;16.70;99.90;;;;;;5053971;28;20406;-62
2021/09/01 10:50:36;;;;;;;11.07;5.77;;;16.50;1.00;;;;;;5053695;28;20313;-62
2021/09/01 10:53:07;;;;;;;14.13;6.13;;;16.30;1.00;;;;;;5053671;28;20279;-62
2021/09/01 10:55:46;;;;;;;12.90;5.97;;;16.10;1.00;;;;;;5053565;28;20292;-61
2021/09/01 10:58:24;;;;;;;12.47;5.80;;;16.10;93.10;;;;;;5053744;28;20209;-61
2021/09/01 11:00:54;;;;;;;11.90;5.70;;;16.30;28.90;;;;;;5053780;28;20212;-62
2021/09/01 11:03:34;;;;;;;14.83;6.60;;;16.40;1.00;;;;;;5053075;28;20324;-62
2021/09/01 11:06:20;;;;;;;11.93;5.93;;;16.30;72.40;;;;;;5053614;28;20604;-62
2021/09/01 11:09:08;;;;;;;11.97;6.43;;;16.10;94.90;;;;;;5043899;28;20261;-62
2021/09/01 11:11:48;;;;;;;11.57;6.00;;;16.10;99.90;;;;;;5053413;28;20276;-62
2021/09/01 11:14:28;;;;;;;12.77;6.77;;;16.30;78.40;;;;;;5048088;28;20229;-63
2021/09/01 11:16:55;;;;;;;12.67;5.90;;;16.30;99.90;;;;;;5041145;28;20719;-64
2021/09/01 11:19:23;;;;;;;12.93;6.33;;;16.30;68.60;;;;;;5052319;28;20256;-64
2021/09/01 11:21:50;;;;;;;17.10;6.80;;;16.20;99.90;;;;;;5053000;28;20238;-64
2021/09/01 11:24:18;;;;;;;11.67;6.53;;;16.10;75.20;;;;;;5052838;28;20236;-64
2021/09/01 11:26:46;;;;;;;12.90;5.97;;;16.10;99.90;;;;;;5052279;28;20279;-61
2021/09/01 11:29:13;;;;;;;13.30;6.63;;;16.20;73.50;;;;;;5051926;28;20201;-61
2021/09/01 11:31:45;;;;;;;10.27;6.53;;;16.20;90.70;;;;;;5051178;28;20209;-61
2021/09/01 11:34:13;;;;;;;15.03;6.73;;;16.30;56.50;;;;;;5052821;28;20291;-62
2021/09/01 11:36:42;;;;;;;12.10;6.67;;;16.30;9.10;;;;;;5052564;28;20197;-63
2021/09/01 11:39:11;;;;;;;16.17;6.70;;;16.40;8.70;;;;;;5052466;28;20592;-64
2021/09/01 11:41:39;;;;;;;13.73;7.00;;;16.40;1.00;;;;;;5052473;28;20296;-61
2021/09/01 11:44:07;;;;;;;14.13;6.40;;;16.60;1.00;;;;;;5052595;28;20644;-61
2021/09/01 11:46:37;;;;;;;10.70;6.30;;;16.50;1.00;;;;;;5052216;28;20229;-60
2021/09/01 11:49:05;;;;;;;13.57;6.83;;;16.70;8.30;;;;;;5052450;28;20205;-61
2021/09/01 11:51:32;;;;;;;15.77;7.27;;;16.90;1.00;;;;;;5052181;28;20246;-61
2021/09/01 11:54:00;;;;;;;11.57;6.43;;;17.10;1.00;;;;;;5051604;28;20230;-61
2021/09/01 11:56:28;;;;;;;11.20;5.93;;;17.20;1.00;;;;;;5052025;28;20205;-60
2021/09/01 11:59:00;;;;;;;11.77;6.30;;;17.30;1.00;;;;;;5052273;28;20205;-61
2021/09/01 12:01:28;;;;;;;12.77;7.03;;;17.40;1.00;;;;;;5052185;28;20209;-62
2021/09/01 12:03:55;;;;;;;11.43;6.60;;;17.40;1.00;;;;;;5051571;28;20233;-60
2021/09/01 12:06:21;;;;;;;14.03;6.33;;;17.50;1.00;;;;;;5051581;28;20233;-61
2021/09/01 12:08:50;;;;;;;11.93;6.80;;;17.40;1.00;;;;;;5051995;28;20210;-60
2021/09/01 12:11:18;;;;;;;16.40;7.50;;;17.50;1.00;;;;;;5052372;28;20205;-60
2021/09/01 12:13:47;;;;;;;12.07;7.10;;;17.50;1.00;;;;;;5051581;28;20306;-61
2021/09/01 12:16:15;;;;;;;10.40;6.60;;;17.40;1.00;;;;;;5051609;28;20201;-61
2021/09/01 12:18:52;;;;;;;12.43;6.70;;;17.40;1.00;;;;;;5052648;28;20248;-60
2021/09/01 12:21:19;;;;;;;11.60;6.77;;;17.50;99.90;;;;;;5052034;28;20254;-68
2021/09/01 12:23:47;;;;;;;10.63;6.80;;;17.50;99.90;;;;;;5051567;28;20295;-61
2021/09/01 12:26:17;;;;;;;10.43;6.27;;;17.30;99.90;;;;;;5051928;28;20225;-65
2021/09/01 12:28:49;;;;;;;11.13;7.13;;;17.20;1.00;;;;;;5052047;28;20578;-64
2021/09/01 12:31:20;;;;;;;10.70;6.50;;;17.10;1.00;;;;;;5051563;28;20209;-64
2021/09/01 12:33:47;;;;;;;13.70;6.90;;;17.20;99.90;;;;;;5051654;28;20271;-65
2021/09/01 12:36:25;;;;;;;13.13;6.27;;;17.10;1.00;;;;;;5051930;28;20201;-61
2021/09/01 12:38:52;;;;;;;10.13;5.70;;;17.10;1.00;;;;;;5051765;28;20236;-61
2021/09/01 12:41:22;;;;;;;12.10;6.40;;;17.30;1.00;;;;;;5051531;28;20308;-61
2021/09/01 12:43:58;;;;;;;12.73;7.00;;;17.40;1.00;;;;;;5050978;28;20262;-60
2021/09/01 12:46:25;;;;;;;10.07;5.57;;;17.40;1.00;;;;;;5051423;28;20308;-63